Pagrindinis puslapis
METAR-TAF:

METAR-TAF

Oro uostai :

Gazipaşa, Turkija

platuma: 36-17-56N, ilguma: 32-18-00E, Aukštis: 15 m

Dabartinis oras

Ataskaita buvo paskelbta 1 valandą ir 4 minutes, ne 16:50 UTC
Vėjas 10 kt iš Šiaurės/Šiaurės Rytų, svyruoja nuo Šiaurės Vakarų ir Rytų/Šiaurės Rytų
Temperatūra 29°C
Drėgmė 35%
Slėgis 1008 hPa
Matomumas 10 km arba daugiau
Mažai debesys ne aukštis 3000 ft
Išsisklaidę debesys ne aukštis 10000 ft

METAR: LTFG 151650Z 02010KT 320V060 9999 FEW030 SCT100 29/12 Q1008

Laikas: 20:54 (17:54 UTC)

Prognozė

Ataskaita buvo paskelbta 1 valandą ir 14 minutes, ne 16:40 UTC
Prognozė galioja nuo 15 metu 18 UTC su 16 metu 03 UTC
Vėjas 15 kt iš Šiaurės Rytų su gūsio iki 25 kt
Matomumas 10 km arba daugiau
Mažai debesys ne aukštis 3500 ft
Tapsmas
nuo 15 metu 18 UTC su 15 metu 21 UTC
Matomumas 10 km arba daugiau
nėra debesų žemiau 1500 m ir nėra kamuolinių lietaus debesų

TAF: LTFG 151640Z 1518/1603 04015G25KT 9999 FEW035 BECMG 1518/1521 CAVOK

Orai ataskaitas ir orų prognozės (METAR, TAF).

turimą stotys yra geltonos ir raudonos taškus žemėlapyje.

Perkelti pele per norėdami pamatyti stoties vardą.

Tada spustelėkite, norėdami matyti oro stebėjimo ir prognozės.

Norėdami pakeisti žemėlapį: spustelėkite ant žalios mygtukų su juodo kryžiaus žemyn,; žalią mygtuką su brūkšneliu, jei norite nutolinti; arba žalių rodyklių gretimoms žemėlapius.


METAR-TAF: